createdAt,value
2017-01-07T00:00:58.118Z,-3.36
2017-01-07T00:02:04.284Z,-3.32
2017-01-07T00:03:09.474Z,-3.31
2017-01-07T00:04:15.637Z,-3.33
2017-01-07T00:05:20.831Z,-3.33
2017-01-07T00:06:26.030Z,-3.33
2017-01-07T00:07:30.270Z,-3.33
2017-01-07T00:08:36.429Z,-3.36
2017-01-07T00:09:40.637Z,-3.23
2017-01-07T00:10:44.871Z,-3.32
2017-01-07T00:11:50.200Z,-3.35
2017-01-07T00:12:53.090Z,-3.39
2017-01-07T00:13:58.288Z,-3.35
2017-01-07T00:15:03.474Z,-3.39
2017-01-07T00:16:08.678Z,-3.35
2017-01-07T00:17:13.871Z,-3.41
2017-01-07T00:18:19.056Z,-3.41
2017-01-07T00:19:24.250Z,-3.43
2017-01-07T00:20:30.424Z,-3.38
2017-01-07T00:21:33.665Z,-3.43
2017-01-07T00:22:37.887Z,-3.41
2017-01-07T00:23:44.040Z,-3.41
2017-01-07T00:24:49.239Z,-3.33
2017-01-07T00:25:54.411Z,-3.38
2017-01-07T00:26:59.609Z,-3.38
2017-01-07T00:28:04.847Z,-3.32
2017-01-07T00:29:10.036Z,-3.36
2017-01-07T00:30:16.205Z,-3.28
2017-01-07T00:31:22.367Z,-3.36
2017-01-07T00:32:27.571Z,-3.35
2017-01-07T00:33:32.765Z,-3.2
2017-01-07T00:34:37.012Z,-3.17
2017-01-07T00:35:43.140Z,-3.2
2017-01-07T00:36:48.351Z,-3.14
2017-01-07T00:37:53.541Z,-3.15
2017-01-07T00:38:57.880Z,-3.14
2017-01-07T00:40:03.080Z,-3.14
2017-01-07T00:41:09.256Z,-3.14
2017-01-07T00:42:15.465Z,-3.05
2017-01-07T00:43:20.627Z,-3.1
2017-01-07T00:44:24.827Z,-3.05
2017-01-07T00:45:30.998Z,-2.99
2017-01-07T00:46:36.173Z,-3.05
2017-01-07T00:47:41.370Z,-3.02
2017-01-07T00:48:47.549Z,-3
2017-01-07T00:49:52.746Z,-2.99
2017-01-07T00:50:58.910Z,-2.99
2017-01-07T00:52:03.145Z,-3
2017-01-07T00:53:09.289Z,-2.99
2017-01-07T00:54:14.480Z,-3
2017-01-07T00:55:18.824Z,-3.02
2017-01-07T00:56:23.953Z,-3.02
2017-01-07T00:57:28.176Z,-2.9
2017-01-07T00:58:33.385Z,-2.99
2017-01-07T00:59:39.562Z,-2.94
2017-01-07T01:00:44.751Z,-2.93
2017-01-07T01:01:50.915Z,-2.93
2017-01-07T01:02:55.192Z,-2.9
2017-01-07T01:04:00.386Z,-2.94
2017-01-07T01:05:04.696Z,-3
2017-01-07T01:06:09.898Z,-2.93
2017-01-07T01:07:14.110Z,-2.93
2017-01-07T01:09:25.576Z,-2.96
2017-01-07T01:10:31.734Z,-2.87
2017-01-07T01:11:38.017Z,-2.82
2017-01-07T01:12:44.181Z,-2.85
2017-01-07T01:13:49.370Z,-2.81
2017-01-07T01:14:55.529Z,-2.89
2017-01-07T01:16:00.727Z,-2.94
2017-01-07T01:17:06.876Z,-2.96
2017-01-07T01:18:12.077Z,-3
2017-01-07T01:19:17.236Z,-2.9
2017-01-07T01:20:22.444Z,-2.97
2017-01-07T01:21:28.601Z,-2.93
2017-01-07T01:22:33.798Z,-2.99
2017-01-07T01:23:39.959Z,-3.04
2017-01-07T01:24:45.120Z,-2.97
2017-01-07T01:25:49.430Z,-3
2017-01-07T01:26:54.629Z,-2.93
2017-01-07T01:28:00.890Z,-3.02
2017-01-07T01:29:06.076Z,-2.94
2017-01-07T01:30:12.237Z,-3
2017-01-07T01:31:17.427Z,-2.94
2017-01-07T01:32:23.588Z,-2.89
2017-01-07T01:33:27.896Z,-2.85
2017-01-07T01:34:33.095Z,-2.96
2017-01-07T01:35:38.291Z,-2.87
2017-01-07T01:36:43.988Z,-2.82
2017-01-07T01:37:50.181Z,-2.89
2017-01-07T01:38:56.341Z,-2.94
2017-01-07T01:40:00.503Z,-2.85
2017-01-07T01:41:05.716Z,-2.85
2017-01-07T01:42:11.877Z,-2.87
2017-01-07T01:43:16.208Z,-2.87
2017-01-07T01:44:20.857Z,-2.76
2017-01-07T01:45:26.052Z,-2.79
2017-01-07T01:46:30.385Z,-2.78
2017-01-07T01:47:35.591Z,-2.71
2017-01-07T01:48:41.741Z,-2.69
2017-01-07T01:49:46.910Z,-2.78
2017-01-07T01:50:53.070Z,-2.75
2017-01-07T01:51:57.303Z,-2.79
2017-01-07T01:53:03.473Z,-2.68
2017-01-07T01:54:07.829Z,-2.74
2017-01-07T01:55:13.887Z,-2.75
2017-01-07T01:56:19.090Z,-2.71
2017-01-07T01:57:24.275Z,-2.79
2017-01-07T01:58:29.446Z,-2.78
2017-01-07T01:59:34.643Z,-2.74
2017-01-07T02:00:39.833Z,-2.75
2017-01-07T02:01:44.032Z,-2.64
2017-01-07T02:02:50.194Z,-2.61
2017-01-07T02:03:56.355Z,-2.66
2017-01-07T02:05:02.516Z,-2.66
2017-01-07T02:06:07.736Z,-2.64
2017-01-07T02:07:12.957Z,-2.64
2017-01-07T02:08:18.196Z,-2.6
2017-01-07T02:09:23.396Z,-2.68
2017-01-07T02:10:27.652Z,-2.58
2017-01-07T02:11:33.804Z,-2.63
2017-01-07T02:12:37.987Z,-2.58
2017-01-07T02:13:42.231Z,-2.64
2017-01-07T02:14:48.375Z,-2.64
2017-01-07T02:15:53.610Z,-2.61
2017-01-07T02:16:58.833Z,-2.63
2017-01-07T02:18:04.065Z,-2.54
2017-01-07T02:19:09.253Z,-2.5
2017-01-07T02:20:13.486Z,-2.53
2017-01-07T02:21:18.686Z,-2.54
2017-01-07T02:22:24.849Z,-2.45
2017-01-07T02:23:31.018Z,-2.42
2017-01-07T02:24:37.213Z,-2.38
2017-01-07T02:25:43.356Z,-2.43
2017-01-07T02:26:48.542Z,-2.43
2017-01-07T02:27:54.700Z,-2.38
2017-01-07T02:28:59.887Z,-2.47
2017-01-07T02:30:04.120Z,-2.45
2017-01-07T02:31:10.302Z,-2.43
2017-01-07T02:32:15.594Z,-2.36
2017-01-07T02:33:20.715Z,-2.45
2017-01-07T02:34:25.899Z,-2.4
2017-01-07T02:35:32.050Z,-2.4
2017-01-07T02:36:37.246Z,-2.36
2017-01-07T02:37:41.483Z,-2.42
2017-01-07T02:38:46.686Z,-2.35
2017-01-07T02:39:52.863Z,-2.42
2017-01-07T02:40:56.201Z,-2.39
2017-01-07T02:42:01.360Z,-2.43
2017-01-07T02:43:04.615Z,-2.38
2017-01-07T02:44:09.805Z,-2.42
2017-01-07T02:45:13.037Z,-2.4
2017-01-07T02:46:19.320Z,-2.38
2017-01-07T02:47:25.476Z,-2.38
2017-01-07T02:48:31.646Z,-2.33
2017-01-07T02:49:37.855Z,-2.38
2017-01-07T02:50:43.023Z,-2.43
2017-01-07T02:51:49.265Z,-2.4
2017-01-07T02:52:55.472Z,-2.43
2017-01-07T02:54:01.643Z,-2.4
2017-01-07T02:55:06.859Z,-2.36
2017-01-07T02:56:11.061Z,-2.4
2017-01-07T02:57:15.288Z,-2.38
2017-01-07T02:58:20.479Z,-2.4
2017-01-07T02:59:26.692Z,-2.35
2017-01-07T03:00:32.856Z,-2.32
2017-01-07T03:01:38.078Z,-2.33
2017-01-07T03:02:44.245Z,-2.33
2017-01-07T03:03:49.509Z,-2.32
2017-01-07T03:04:52.750Z,-2.29
2017-01-07T03:05:57.936Z,-2.28
2017-01-07T03:07:04.108Z,-2.36
2017-01-07T03:08:09.276Z,-2.32
2017-01-07T03:09:13.491Z,-2.32
2017-01-07T03:10:18.689Z,-2.29
2017-01-07T03:11:23.882Z,-2.33
2017-01-07T03:12:29.081Z,-2.32
2017-01-07T03:13:35.246Z,-2.32
2017-01-07T03:14:40.436Z,-2.26
2017-01-07T03:15:43.720Z,-2.24
2017-01-07T03:16:49.846Z,-2.17
2017-01-07T03:17:55.054Z,-2.32
2017-01-07T03:19:00.241Z,-2.24
2017-01-07T03:20:04.511Z,-2.21
2017-01-07T03:21:08.753Z,-2.18
2017-01-07T03:22:14.893Z,-2.23
2017-01-07T03:23:20.081Z,-2.17
2017-01-07T03:24:24.284Z,-2.13
2017-01-07T03:25:30.439Z,-2.17
2017-01-07T03:26:36.600Z,-2.13
2017-01-07T03:27:42.777Z,-2.17
2017-01-07T03:28:48.957Z,-2.28
2017-01-07T03:29:54.867Z,-2.21
2017-01-07T03:31:01.023Z,-2.17
2017-01-07T03:32:04.364Z,-2.18
2017-01-07T03:33:08.601Z,-2.21
2017-01-07T03:34:13.808Z,-2.14
2017-01-07T03:35:19.963Z,-2.26
2017-01-07T03:36:26.124Z,-2.32
2017-01-07T03:37:32.291Z,-2.23
2017-01-07T03:38:37.491Z,-2.23
2017-01-07T03:39:42.681Z,-2.29
2017-01-07T03:40:47.870Z,-2.16
2017-01-07T03:41:53.065Z,-2.18
2017-01-07T03:42:58.258Z,-2.17
2017-01-07T03:44:04.415Z,-2.14
2017-01-07T03:45:10.587Z,-2.14
2017-01-07T03:46:16.742Z,-2.18
2017-01-07T03:47:21.962Z,-2.13
2017-01-07T03:48:28.122Z,-2.18
2017-01-07T03:49:34.285Z,-2.16
2017-01-07T03:50:40.446Z,-2.13
2017-01-07T03:51:46.391Z,-2.08
2017-01-07T03:52:51.962Z,-2.08
2017-01-07T03:53:57.431Z,-2.06
2017-01-07T03:55:02.592Z,-2.1
2017-01-07T03:56:08.787Z,-2.06
2017-01-07T03:57:14.916Z,-2.08
2017-01-07T03:58:21.076Z,-2.05
2017-01-07T03:59:27.233Z,-2.06
2017-01-07T04:00:32.428Z,-2.14
2017-01-07T04:01:37.637Z,-2.03
2017-01-07T04:02:42.834Z,-2.08
2017-01-07T04:03:48.990Z,-2.1
2017-01-07T04:04:54.184Z,-1.95
2017-01-07T04:05:58.415Z,-1.99
2017-01-07T04:07:02.639Z,-1.99
2017-01-07T04:08:07.948Z,-1.93
2017-01-07T04:09:13.110Z,-2.08
2017-01-07T04:10:17.337Z,-1.95
2017-01-07T04:11:22.528Z,-1.92
2017-01-07T04:12:28.687Z,-1.9
2017-01-07T04:13:33.881Z,-1.95
2017-01-07T04:14:40.036Z,-2.02
2017-01-07T04:15:45.237Z,-1.99
2017-01-07T04:16:51.515Z,-1.99
2017-01-07T04:17:57.009Z,-1.9
2017-01-07T04:19:02.206Z,-1.95
2017-01-07T04:20:06.399Z,-2.02
2017-01-07T04:21:12.575Z,-2.05
2017-01-07T04:22:17.759Z,-2
2017-01-07T04:23:21.958Z,-2.1
2017-01-07T04:24:25.981Z,-2
2017-01-07T04:25:30.244Z,-2.1
2017-01-07T04:26:36.148Z,-2.06
2017-01-07T04:27:41.340Z,-2.06
2017-01-07T04:28:47.549Z,-2.16
2017-01-07T04:29:53.703Z,-2.24
2017-01-07T04:30:58.914Z,-2.33
2017-01-07T04:32:05.077Z,-2.32
2017-01-07T04:33:11.249Z,-2.26
2017-01-07T04:34:15.447Z,-2.35
2017-01-07T04:35:20.619Z,-2.39
2017-01-07T04:36:25.826Z,-2.5
2017-01-07T04:37:32.105Z,-2.5
2017-01-07T04:38:38.267Z,-2.39
2017-01-07T04:39:42.524Z,-2.43
2017-01-07T04:40:47.412Z,-2.45
2017-01-07T04:41:51.646Z,-2.5
2017-01-07T04:42:57.807Z,-2.54
2017-01-07T04:44:03.998Z,-2.43
2017-01-07T04:45:10.119Z,-2.54
2017-01-07T04:46:15.332Z,-2.54
2017-01-07T04:47:20.527Z,-2.5
2017-01-07T04:48:25.733Z,-2.58
2017-01-07T04:49:30.909Z,-2.64
2017-01-07T04:50:36.112Z,-2.64
2017-01-07T04:51:42.259Z,-2.68
2017-01-07T04:52:46.528Z,-2.71
2017-01-07T04:53:51.719Z,-2.71
2017-01-07T04:54:56.972Z,-2.75
2017-01-07T04:56:02.162Z,-2.78
2017-01-07T04:57:05.390Z,-2.78
2017-01-07T04:58:10.584Z,-2.75
2017-01-07T04:59:14.824Z,-2.68
2017-01-07T05:00:19.053Z,-2.69
2017-01-07T05:01:24.361Z,-2.72
2017-01-07T05:02:30.144Z,-2.68
2017-01-07T05:03:35.342Z,-2.75
2017-01-07T05:04:40.561Z,-2.78
2017-01-07T05:05:45.826Z,-2.81
2017-01-07T05:06:51.985Z,-2.82
2017-01-07T05:07:57.163Z,-2.76
2017-01-07T05:09:02.353Z,-2.74
2017-01-07T05:10:07.546Z,-2.74
2017-01-07T05:11:12.746Z,-2.79
2017-01-07T05:12:18.055Z,-2.89
2017-01-07T05:13:23.556Z,-2.76
2017-01-07T05:14:29.804Z,-2.86
2017-01-07T05:15:33.038Z,-2.79
2017-01-07T05:16:38.228Z,-2.9
2017-01-07T05:17:42.423Z,-2.9
2017-01-07T05:18:47.621Z,-2.76
2017-01-07T05:19:53.775Z,-2.86
2017-01-07T05:20:59.945Z,-2.86
2017-01-07T05:22:06.102Z,-2.9
2017-01-07T05:23:11.260Z,-2.85
2017-01-07T05:24:17.423Z,-2.81
2017-01-07T05:25:21.609Z,-2.74
2017-01-07T05:26:26.859Z,-2.82
2017-01-07T05:27:33.019Z,-2.87
2017-01-07T05:28:39.183Z,-2.85
2017-01-07T05:29:42.417Z,-2.81
2017-01-07T05:30:47.608Z,-2.92
2017-01-07T05:31:53.774Z,-2.85
2017-01-07T05:32:58.934Z,-2.79
2017-01-07T05:34:04.119Z,-2.82
2017-01-07T05:35:08.312Z,-2.81
2017-01-07T05:36:13.568Z,-2.9
2017-01-07T05:37:18.761Z,-2.81
2017-01-07T05:38:24.987Z,-2.92
2017-01-07T05:40:35.368Z,-2.94
2017-01-07T05:41:41.545Z,-2.92
2017-01-07T05:42:44.795Z,-2.96
2017-01-07T05:43:49.997Z,-2.85
2017-01-07T05:44:55.194Z,-2.87
2017-01-07T05:46:00.370Z,-2.89
2017-01-07T05:47:06.533Z,-2.92
2017-01-07T05:48:12.692Z,-2.81
2017-01-07T05:49:17.893Z,-2.78
2017-01-07T05:50:24.046Z,-2.82
2017-01-07T05:51:29.419Z,-2.87
2017-01-07T05:52:34.618Z,-2.76
2017-01-07T05:53:38.918Z,-2.89
2017-01-07T05:54:44.108Z,-2.79
2017-01-07T05:55:49.296Z,-2.89
2017-01-07T05:56:53.522Z,-2.86
2017-01-07T05:57:59.683Z,-2.79
2017-01-07T05:59:05.903Z,-2.85
2017-01-07T06:00:12.069Z,-2.89
2017-01-07T06:01:18.228Z,-2.9
2017-01-07T06:02:23.418Z,-2.87
2017-01-07T06:03:27.652Z,-2.78
2017-01-07T06:04:32.881Z,-2.79
2017-01-07T06:05:37.079Z,-2.78
2017-01-07T06:06:41.281Z,-2.89
2017-01-07T06:07:46.490Z,-2.93
2017-01-07T06:08:51.721Z,-2.92
2017-01-07T06:09:56.985Z,-2.81
2017-01-07T06:11:03.141Z,-2.86
2017-01-07T06:12:08.344Z,-2.87
2017-01-07T06:13:13.506Z,-2.82
2017-01-07T06:14:18.735Z,-2.89
2017-01-07T06:15:22.907Z,-2.92
2017-01-07T06:16:28.110Z,-2.78
2017-01-07T06:17:33.303Z,-2.89
2017-01-07T06:18:39.456Z,-2.75
2017-01-07T06:19:45.628Z,-2.9
2017-01-07T06:20:51.785Z,-2.79
2017-01-07T06:21:57.948Z,-2.71
2017-01-07T06:23:04.103Z,-2.87
2017-01-07T06:24:08.069Z,-2.76
2017-01-07T06:25:12.273Z,-2.78
2017-01-07T06:26:18.434Z,-2.86
2017-01-07T06:27:22.683Z,-2.87
2017-01-07T06:28:26.934Z,-2.93
2017-01-07T06:29:33.070Z,-2.86
2017-01-07T06:30:38.258Z,-2.92
2017-01-07T06:31:42.449Z,-2.92
2017-01-07T06:32:47.647Z,-2.85
2017-01-07T06:33:53.806Z,-2.89
2017-01-07T06:34:59.027Z,-2.79
2017-01-07T06:36:04.863Z,-2.89
2017-01-07T06:37:09.063Z,-2.81
2017-01-07T06:38:14.322Z,-2.82
2017-01-07T06:39:19.518Z,-2.86
2017-01-07T06:40:25.689Z,-2.87
2017-01-07T06:41:31.853Z,-2.72
2017-01-07T06:42:36.068Z,-2.79
2017-01-07T06:43:41.261Z,-2.87
2017-01-07T06:44:45.813Z,-2.76
2017-01-07T06:45:50.972Z,-2.75
2017-01-07T06:46:56.194Z,-2.81
2017-01-07T06:48:02.346Z,-2.74
2017-01-07T06:49:08.504Z,-2.75
2017-01-07T06:50:14.308Z,-2.86
2017-01-07T06:51:20.518Z,-2.87
2017-01-07T06:52:25.764Z,-2.85
2017-01-07T06:53:29.953Z,-2.81
2017-01-07T06:54:34.181Z,-2.82
2017-01-07T06:55:38.392Z,-2.89
2017-01-07T06:56:44.572Z,-2.89
2017-01-07T06:57:49.894Z,-2.82
2017-01-07T06:58:56.025Z,-2.82
2017-01-07T07:00:02.188Z,-2.92
2017-01-07T07:01:07.353Z,-2.78
2017-01-07T07:02:13.555Z,-2.89
2017-01-07T07:03:19.717Z,-2.76
2017-01-07T07:04:26.008Z,-2.82
2017-01-07T07:05:31.157Z,-2.85
2017-01-07T07:06:36.384Z,-2.89
2017-01-07T07:07:42.548Z,-2.86
2017-01-07T07:08:48.728Z,-2.79
2017-01-07T07:09:52.965Z,-2.85
2017-01-07T07:10:59.125Z,-2.76
2017-01-07T07:12:04.314Z,-2.79
2017-01-07T07:13:09.517Z,-2.85
2017-01-07T07:14:13.751Z,-2.9
2017-01-07T07:15:19.927Z,-2.86
2017-01-07T07:16:25.096Z,-2.82
2017-01-07T07:17:30.313Z,-2.72
2017-01-07T07:18:35.480Z,-2.81
2017-01-07T07:19:40.741Z,-2.82
2017-01-07T07:20:45.915Z,-2.66
2017-01-07T07:21:51.196Z,-2.69
2017-01-07T07:22:55.398Z,-2.74
2017-01-07T07:24:01.551Z,-2.81
2017-01-07T07:25:07.723Z,-2.76
2017-01-07T07:26:10.996Z,-2.76
2017-01-07T07:27:15.256Z,-2.76
2017-01-07T07:28:21.437Z,-2.71
2017-01-07T07:29:26.593Z,-2.66
2017-01-07T07:30:30.900Z,-2.68
2017-01-07T07:31:37.052Z,-2.68
2017-01-07T07:32:42.281Z,-2.64
2017-01-07T07:33:46.455Z,-2.61
2017-01-07T07:34:51.649Z,-2.68
2017-01-07T07:35:57.810Z,-2.58
2017-01-07T07:37:03.995Z,-2.61
2017-01-07T07:38:10.147Z,-2.61
2017-01-07T07:39:15.343Z,-2.63
2017-01-07T07:40:19.549Z,-2.61
2017-01-07T07:41:25.719Z,-2.58
2017-01-07T07:42:31.934Z,-2.63
2017-01-07T07:43:37.135Z,-2.66
2017-01-07T07:44:43.309Z,-2.68
2017-01-07T07:45:48.511Z,-2.57
2017-01-07T07:46:53.701Z,-2.58
2017-01-07T07:47:59.872Z,-2.51
2017-01-07T07:49:04.142Z,-2.6
2017-01-07T07:50:10.333Z,-2.51
2017-01-07T07:51:16.495Z,-2.56
2017-01-07T07:52:20.715Z,-2.56
2017-01-07T07:53:26.881Z,-2.48
2017-01-07T07:54:31.066Z,-2.51
2017-01-07T07:55:35.372Z,-2.51
2017-01-07T07:56:40.599Z,-2.42
2017-01-07T07:57:43.813Z,-2.51
2017-01-07T07:58:48.041Z,-2.48
2017-01-07T07:59:52.307Z,-2.54
2017-01-07T08:00:56.465Z,-2.48
2017-01-07T08:02:01.653Z,-2.54
2017-01-07T08:03:06.842Z,-2.5
2017-01-07T08:04:13.113Z,-2.54
2017-01-07T08:05:19.269Z,-2.54
2017-01-07T08:06:25.424Z,-2.54
2017-01-07T08:07:29.656Z,-2.54
2017-01-07T08:08:34.853Z,-2.42
2017-01-07T08:09:40.150Z,-2.47
2017-01-07T08:10:44.951Z,-2.5
2017-01-07T08:11:51.111Z,-2.56
2017-01-07T08:12:55.338Z,-2.5
2017-01-07T08:14:01.509Z,-2.48
2017-01-07T08:15:06.716Z,-2.47
2017-01-07T08:16:10.945Z,-2.4
2017-01-07T08:17:17.107Z,-2.42
2017-01-07T08:18:22.310Z,-2.43
2017-01-07T08:19:28.565Z,-2.42
2017-01-07T08:20:33.758Z,-2.4
2017-01-07T08:21:39.912Z,-2.4
2017-01-07T08:22:45.074Z,-2.43
2017-01-07T08:23:49.304Z,-2.42
2017-01-07T08:24:54.494Z,-2.56
2017-01-07T08:25:58.692Z,-2.5
2017-01-07T08:27:03.955Z,-2.45
2017-01-07T08:28:10.129Z,-2.53
2017-01-07T08:29:15.318Z,-2.56
2017-01-07T08:30:19.539Z,-2.45
2017-01-07T08:31:25.723Z,-2.53
2017-01-07T08:33:38.031Z,-2.51
2017-01-07T08:34:44.190Z,-2.43
2017-01-07T08:35:50.355Z,-2.45
2017-01-07T08:36:56.553Z,-2.36
2017-01-07T08:38:02.730Z,-2.38
2017-01-07T08:39:08.895Z,-2.35
2017-01-07T08:40:14.088Z,-2.35
2017-01-07T08:41:20.245Z,-2.35
2017-01-07T08:42:25.415Z,-2.38
2017-01-07T08:43:29.642Z,-2.42
2017-01-07T08:44:34.825Z,-2.36
2017-01-07T08:45:40.989Z,-2.33
2017-01-07T08:46:47.169Z,-2.33
2017-01-07T08:47:52.361Z,-2.33
2017-01-07T08:48:58.526Z,-2.36
2017-01-07T08:50:02.723Z,-2.33
2017-01-07T08:51:27.135Z,-2.24
2017-01-07T08:52:32.293Z,-2.38
2017-01-07T08:53:37.487Z,-2.32
2017-01-07T08:54:43.653Z,-2.24
2017-01-07T08:55:49.856Z,-2.28
2017-01-07T08:56:55.980Z,-2.23
2017-01-07T08:58:02.137Z,-2.14
2017-01-07T08:59:08.310Z,-2.18
2017-01-07T09:00:12.510Z,-2.14
2017-01-07T09:01:17.714Z,-2.26
2017-01-07T09:02:22.002Z,-2.1
2017-01-07T09:03:28.162Z,-2.06
2017-01-07T09:04:33.355Z,-1.98
2017-01-07T09:05:37.581Z,-1.9
2017-01-07T09:06:42.823Z,-1.87
2017-01-07T09:07:48.982Z,-1.93
2017-01-07T09:08:55.200Z,-1.88
2017-01-07T09:10:01.439Z,-1.88
2017-01-07T09:11:08.038Z,-1.92
2017-01-07T09:12:14.158Z,-1.92
2017-01-07T09:13:20.318Z,-1.92
2017-01-07T09:14:26.583Z,-1.84
2017-01-07T09:15:32.472Z,-1.67
2017-01-07T09:16:38.138Z,-1.67
2017-01-07T09:17:44.660Z,-1.66
2017-01-07T09:18:50.831Z,-1.72
2017-01-07T09:19:53.109Z,-1.64
2017-01-07T09:20:58.305Z,-1.64
2017-01-07T09:22:02.529Z,-1.7
2017-01-07T09:23:06.789Z,-1.7
2017-01-07T09:24:13.047Z,-1.57
2017-01-07T09:25:19.179Z,-1.56
2017-01-07T09:26:25.337Z,-1.59
2017-01-07T09:27:30.574Z,-1.56
2017-01-07T09:28:36.703Z,-1.59
2017-01-07T09:29:41.929Z,-1.66
2017-01-07T09:30:48.092Z,-1.59
2017-01-07T09:31:54.261Z,-1.63
2017-01-07T09:33:00.418Z,-1.56
2017-01-07T09:34:05.613Z,-1.59
2017-01-07T09:35:08.847Z,-1.45
2017-01-07T09:36:15.029Z,-1.42
2017-01-07T09:37:21.183Z,-1.46
2017-01-07T09:38:26.381Z,-1.28
2017-01-07T09:39:32.542Z,-1.35
2017-01-07T09:40:37.740Z,-1.35
2017-01-07T09:41:41.997Z,-1.38
2017-01-07T09:42:47.189Z,-1.36
2017-01-07T09:43:52.356Z,-1.42
2017-01-07T09:44:58.524Z,-1.35
2017-01-07T09:46:04.779Z,-1.36
2017-01-07T09:47:09.991Z,-1.35
2017-01-07T09:48:16.152Z,-1.38
2017-01-07T09:49:19.435Z,-1.31
2017-01-07T09:50:24.647Z,-1.27
2017-01-07T09:51:30.802Z,-1.28
2017-01-07T09:52:35.990Z,-1.24
2017-01-07T09:53:40.225Z,-1.23
2017-01-07T09:54:45.467Z,-1.15
2017-01-07T09:55:50.661Z,-1.15
2017-01-07T09:56:56.836Z,-1.17
2017-01-07T09:58:02.993Z,-1.17
2017-01-07T09:59:08.194Z,-1.17
2017-01-07T10:00:13.390Z,-1.18
2017-01-07T10:01:19.560Z,-1.25
2017-01-07T10:02:25.742Z,-1.24
2017-01-07T10:03:31.900Z,-1.2
2017-01-07T10:04:38.136Z,-1.27
2017-01-07T10:05:43.332Z,-1.31
2017-01-07T10:06:48.547Z,-1.33
2017-01-07T10:07:52.801Z,-1.36
2017-01-07T10:08:57.087Z,-1.33
2017-01-07T10:10:01.321Z,-1.18
2017-01-07T10:11:07.478Z,-1.25
2017-01-07T10:12:13.747Z,-1.28
2017-01-07T10:13:19.909Z,-1.36
2017-01-07T10:14:25.111Z,-1.38
2017-01-07T10:15:31.281Z,-1.42
2017-01-07T10:16:36.480Z,-1.31
2017-01-07T10:17:41.675Z,-1.48
2017-01-07T10:18:45.854Z,-1.38
2017-01-07T10:19:52.076Z,-1.51
2017-01-07T10:20:58.172Z,-1.36
2017-01-07T10:22:03.372Z,-1.38
2017-01-07T10:23:09.535Z,-1.36
2017-01-07T10:24:15.710Z,-1.38
2017-01-07T10:25:18.943Z,-1.48
2017-01-07T10:26:23.172Z,-1.39
2017-01-07T10:27:27.464Z,-1.39
2017-01-07T10:28:33.629Z,-1.28
2017-01-07T10:29:38.540Z,-1.49
2017-01-07T10:30:43.730Z,-1.36
2017-01-07T10:31:49.893Z,-1.35
2017-01-07T10:32:55.062Z,-1.36
2017-01-07T10:34:01.238Z,-1.35
2017-01-07T10:35:07.408Z,-1.3
2017-01-07T10:36:13.570Z,-1.36
2017-01-07T10:37:19.765Z,-1.39
2017-01-07T10:38:25.901Z,-1.39
2017-01-07T10:39:31.221Z,-1.27
2017-01-07T10:40:35.453Z,-1.21
2017-01-07T10:41:39.692Z,-1.17
2017-01-07T10:42:44.889Z,-1.15
2017-01-07T10:43:50.069Z,-1.18
2017-01-07T10:44:54.292Z,-1.12
2017-01-07T10:46:00.489Z,-1.17
2017-01-07T10:47:06.626Z,-1.12
2017-01-07T10:48:12.788Z,-1.12
2017-01-07T10:49:17.988Z,-1.12
2017-01-07T10:50:22.311Z,-1.02
2017-01-07T10:51:28.131Z,-0.97
2017-01-07T10:52:33.295Z,-0.97
2017-01-07T10:53:39.459Z,-0.92
2017-01-07T10:54:44.674Z,-0.91
2017-01-07T10:55:48.961Z,-0.87
2017-01-07T10:56:55.084Z,-0.91
2017-01-07T10:58:00.281Z,-1.02
2017-01-07T10:59:05.478Z,-0.92
2017-01-07T11:00:11.653Z,-0.94
2017-01-07T11:01:17.863Z,-1
2017-01-07T11:02:23.013Z,-1.02
2017-01-07T11:03:29.257Z,-1.05
2017-01-07T11:04:34.597Z,-0.91
2017-01-07T11:05:38.797Z,-1
2017-01-07T11:06:44.963Z,-0.87
2017-01-07T11:07:51.198Z,-0.94
2017-01-07T11:08:56.470Z,-0.89
2017-01-07T11:10:01.591Z,-0.84
2017-01-07T11:11:06.785Z,-0.95
2017-01-07T11:12:10.013Z,-0.97
2017-01-07T11:13:15.291Z,-0.94
2017-01-07T11:14:20.489Z,-0.99
2017-01-07T11:15:26.780Z,-0.87
2017-01-07T11:16:32.970Z,-0.91
2017-01-07T11:17:39.096Z,-0.92
2017-01-07T11:18:44.296Z,-0.99
2017-01-07T11:19:48.531Z,-1.02
2017-01-07T11:20:52.869Z,-0.99
2017-01-07T11:21:59.000Z,-0.97
2017-01-07T11:23:05.165Z,-0.95
2017-01-07T11:24:10.363Z,-0.87
2017-01-07T11:25:16.533Z,-0.97
2017-01-07T11:26:22.694Z,-0.99
2017-01-07T11:27:27.594Z,-0.94
2017-01-07T11:28:33.840Z,-1.07
2017-01-07T11:29:39.032Z,-1.07
2017-01-07T11:30:44.221Z,-1
2017-01-07T11:31:49.461Z,-0.99
2017-01-07T11:32:54.629Z,-0.91
2017-01-07T11:33:57.943Z,-0.89
2017-01-07T11:35:03.133Z,-0.94
2017-01-07T11:36:09.294Z,-1.02
2017-01-07T11:37:13.486Z,-0.92
2017-01-07T11:38:18.727Z,-0.91
2017-01-07T11:39:22.976Z,-0.86
2017-01-07T11:40:28.209Z,-0.86
2017-01-07T11:41:31.435Z,-0.86
2017-01-07T11:42:36.641Z,-0.83
2017-01-07T11:43:42.811Z,-0.83
2017-01-07T11:44:48.974Z,-0.86
2017-01-07T11:45:54.176Z,-0.81
2017-01-07T11:47:00.393Z,-0.83
2017-01-07T11:48:05.575Z,-0.91
2017-01-07T11:49:11.156Z,-0.78
2017-01-07T11:50:16.357Z,-0.75
2017-01-07T11:51:22.522Z,-0.72
2017-01-07T11:52:27.793Z,-0.78
2017-01-07T11:53:32.004Z,-0.69
2017-01-07T11:54:38.245Z,-0.7
2017-01-07T11:55:43.443Z,-0.68
2017-01-07T11:56:48.733Z,-0.68
2017-01-07T11:57:52.841Z,-0.66
2017-01-07T11:58:58.041Z,-0.62
2017-01-07T12:00:04.200Z,-0.51
2017-01-07T12:01:09.364Z,-0.54
2017-01-07T12:02:14.601Z,-0.54
2017-01-07T12:03:19.798Z,-0.57
2017-01-07T12:04:24.987Z,-0.59
2017-01-07T12:05:30.188Z,-0.45
2017-01-07T12:06:36.362Z,-0.5
2017-01-07T12:07:41.595Z,-0.5
2017-01-07T12:08:45.827Z,-0.48
2017-01-07T12:09:51.021Z,-0.45
2017-01-07T12:10:56.248Z,-0.39
2017-01-07T12:12:00.499Z,-0.55
2017-01-07T12:13:03.727Z,-0.34
2017-01-07T12:14:07.927Z,-0.55
2017-01-07T12:15:14.126Z,-0.48
2017-01-07T12:16:20.261Z,-0.52
2017-01-07T12:17:25.454Z,-0.6
2017-01-07T12:18:29.687Z,-0.62
2017-01-07T12:19:34.892Z,-0.63
2017-01-07T12:20:41.087Z,-0.63
2017-01-07T12:21:47.217Z,-0.69
2017-01-07T12:22:53.446Z,-0.73
2017-01-07T12:23:58.647Z,-0.73
2017-01-07T12:25:02.846Z,-0.83
2017-01-07T12:26:08.013Z,-0.81
2017-01-07T12:27:12.219Z,-0.87
2017-01-07T12:28:16.430Z,-0.84
2017-01-07T12:29:21.704Z,-0.91
2017-01-07T12:30:24.961Z,-0.92
2017-01-07T12:31:31.125Z,-0.91
2017-01-07T12:32:34.373Z,-0.87
2017-01-07T12:33:40.536Z,-0.83
2017-01-07T12:34:44.849Z,-0.83
2017-01-07T12:35:50.969Z,-0.7
2017-01-07T12:36:54.271Z,-0.84
2017-01-07T12:37:59.461Z,-0.83
2017-01-07T12:39:04.711Z,-0.81
2017-01-07T12:40:10.877Z,-0.84
2017-01-07T12:41:15.070Z,-0.86
2017-01-07T12:42:20.272Z,-0.75
2017-01-07T12:43:25.487Z,-0.75
2017-01-07T12:44:29.714Z,-0.78
2017-01-07T12:45:34.908Z,-0.72
2017-01-07T12:46:38.167Z,-0.83
2017-01-07T12:47:44.337Z,-0.81
2017-01-07T12:48:49.545Z,-0.84
2017-01-07T12:49:54.744Z,-0.89
2017-01-07T12:51:01.032Z,-0.8
2017-01-07T12:52:07.196Z,-0.8
2017-01-07T12:53:11.139Z,-0.78
2017-01-07T12:54:16.317Z,-0.83
2017-01-07T12:55:21.520Z,-0.73
2017-01-07T12:56:25.732Z,-0.8
2017-01-07T12:57:30.939Z,-0.75
2017-01-07T12:58:37.109Z,-0.75
2017-01-07T12:59:42.301Z,-0.86
2017-01-07T13:00:48.469Z,-0.83
2017-01-07T13:01:53.636Z,-0.83
2017-01-07T13:02:56.893Z,-0.8
2017-01-07T13:04:03.064Z,-0.8
2017-01-07T13:05:08.268Z,-0.7
2017-01-07T13:06:12.500Z,-0.68
2017-01-07T13:07:16.702Z,-0.72
2017-01-07T13:08:21.902Z,-0.8
2017-01-07T13:09:27.222Z,-0.86
2017-01-07T13:10:32.400Z,-0.87
2017-01-07T13:11:38.607Z,-0.86
2017-01-07T13:12:43.806Z,-0.84
2017-01-07T13:13:50.030Z,-0.84
2017-01-07T13:14:56.210Z,-0.87
2017-01-07T13:16:01.413Z,-0.91
2017-01-07T13:17:06.686Z,-0.89
2017-01-07T13:18:12.842Z,-0.92
2017-01-07T13:19:18.097Z,-0.97
2017-01-07T13:20:23.299Z,-0.87
2017-01-07T13:21:29.471Z,-0.97
2017-01-07T13:22:34.660Z,-0.92
2017-01-07T13:23:40.822Z,-0.94
2017-01-07T13:24:46.982Z,-0.81
2017-01-07T13:25:53.269Z,-0.8
2017-01-07T13:26:58.488Z,-0.8
2017-01-07T13:28:04.640Z,-0.81
2017-01-07T13:29:10.805Z,-0.87
2017-01-07T13:30:16.005Z,-0.87
2017-01-07T13:31:19.643Z,-0.89
2017-01-07T13:32:25.796Z,-0.84
2017-01-07T13:33:29.045Z,-0.81
2017-01-07T13:34:35.210Z,-0.8
2017-01-07T13:35:40.401Z,-0.8
2017-01-07T13:36:46.560Z,-0.77
2017-01-07T13:37:52.719Z,-0.8
2017-01-07T13:38:58.882Z,-0.83
2017-01-07T13:40:04.082Z,-0.72
2017-01-07T13:41:10.347Z,-0.83
2017-01-07T13:42:16.507Z,-0.63
2017-01-07T13:43:22.677Z,-0.72
2017-01-07T13:44:28.846Z,-0.68
2017-01-07T13:45:34.012Z,-0.75
2017-01-07T13:46:40.173Z,-0.68
2017-01-07T13:47:45.373Z,-0.68
2017-01-07T13:48:49.642Z,-0.7
2017-01-07T13:49:55.818Z,-0.63
2017-01-07T13:51:00.987Z,-0.59
2017-01-07T13:52:05.220Z,-0.72
2017-01-07T13:53:10.410Z,-0.7
2017-01-07T13:54:14.627Z,-0.68
2017-01-07T13:55:20.765Z,-0.84
2017-01-07T13:56:26.927Z,-0.7
2017-01-07T13:57:33.086Z,-0.75
2017-01-07T13:58:39.249Z,-0.75
2017-01-07T13:59:44.483Z,-0.78
2017-01-07T14:00:50.606Z,-0.72
2017-01-07T14:01:53.836Z,-0.73
2017-01-07T14:02:58.061Z,-0.81
2017-01-07T14:04:03.259Z,-0.78
2017-01-07T14:05:08.433Z,-0.75
2017-01-07T14:06:14.598Z,-0.65
2017-01-07T14:07:19.447Z,-0.63
2017-01-07T14:08:24.619Z,-0.69